Time;durP1;ratioP1;P1;durP2;ratioP2;P2;SDS_P1;SDS_P2;PMS_P1;PMS_P2;Temp;Humidity;BMP_temperature;BMP_pressure;BME280_temperature;BME280_humidity;BME280_pressure;Samples;Min_cycle;Max_cycle;Signal;HPM_P1;HPM_P2
2022/01/10 00:00:01;;;;;;;87.47;29.95;;;;;;;;;;4952840;28;20531;-69
2022/01/10 00:02:26;;;;;;;85.55;30.67;;;;;;;;;;4970828;28;20048;-70
2022/01/10 00:04:52;;;;;;;84.85;28.20;;;;;;;;;;4953561;28;20425;-70
2022/01/10 00:07:17;;;;;;;96.28;30.60;;;;;;;;;;4970460;28;20452;-69
2022/01/10 00:09:43;;;;;;;96.88;33.40;;;;;;;;;;4968952;28;20506;-69
2022/01/10 00:12:08;;;;;;;96.70;29.55;;;;;;;;;;4970564;28;20515;-69
2022/01/10 00:14:33;;;;;;;90.63;29.67;;;;;;;;;;4970389;28;20456;-69
2022/01/10 00:16:59;;;;;;;91.63;30.75;;;;;;;;;;4971072;28;20432;-69
2022/01/10 00:19:24;;;;;;;84.60;27.95;;;;;;;;;;4971069;28;20387;-69
2022/01/10 00:21:50;;;;;;;89.55;27.92;;;;;;;;;;4970471;28;20389;-69
2022/01/10 00:24:16;;;;;;;73.65;27.63;;;;;;;;;;4970375;28;20368;-69
2022/01/10 00:26:41;;;;;;;89.07;27.85;;;;;;;;;;4970452;28;20446;-70
2022/01/10 00:29:06;;;;;;;94.95;28.95;;;;;;;;;;4970376;28;20391;-69
2022/01/10 00:31:32;;;;;;;86.63;28.45;;;;;;;;;;4952454;28;20127;-69
2022/01/10 00:33:57;;;;;;;80.35;26.20;;;;;;;;;;4969565;28;20368;-70
2022/01/10 00:36:22;;;;;;;81.93;27.48;;;;;;;;;;4952713;28;20521;-69
2022/01/10 00:38:48;;;;;;;78.72;26.85;;;;;;;;;;4968629;28;20412;-69
2022/01/10 00:41:13;;;;;;;72.25;25.10;;;;;;;;;;4952398;28;20348;-69
2022/01/10 00:43:45;;;;;;;79.25;27.92;;;;;;;;;;4969922;28;20336;-69
2022/01/10 00:46:10;;;;;;;79.60;28.27;;;;;;;;;;4953848;28;20456;-69
2022/01/10 00:48:35;;;;;;;79.43;28.15;;;;;;;;;;4971343;28;20444;-69
2022/01/10 00:51:01;;;;;;;78.75;27.38;;;;;;;;;;4951909;28;20403;-69
2022/01/10 00:53:26;;;;;;;68.10;24.95;;;;;;;;;;4969865;28;20400;-73
2022/01/10 00:55:52;;;;;;;86.28;26.90;;;;;;;;;;4968363;28;20425;-69
2022/01/10 00:58:17;;;;;;;91.50;26.73;;;;;;;;;;4970167;28;20033;-69
2022/01/10 01:00:43;;;;;;;74.70;25.98;;;;;;;;;;4972050;28;20302;-69
2022/01/10 01:03:08;;;;;;;78.63;25.85;;;;;;;;;;4977114;28;20347;-69
2022/01/10 01:05:38;;;;;;;78.63;27.17;;;;;;;;;;4969541;28;20387;-70
2022/01/10 01:08:06;;;;;;;76.22;24.95;;;;;;;;;;4952529;28;20321;-69
2022/01/10 01:19:52;;;;;;;78.95;25.08;;;;;;;;;;4952876;28;20326;-69
2022/01/10 01:24:08;;;;;;;67.57;23.88;;;;;;;;;;4955244;28;20056;-69
2022/01/10 01:26:36;;;;;;;64.13;23.35;;;;;;;;;;4969406;28;20488;-69
2022/01/10 01:29:10;;;;;;;70.20;25.25;;;;;;;;;;4951533;28;20391;-69
2022/01/10 01:31:36;;;;;;;64.47;24.38;;;;;;;;;;4951531;28;20428;-68
2022/01/10 01:34:02;;;;;;;64.72;23.27;;;;;;;;;;4969223;28;20359;-69
2022/01/10 01:36:30;;;;;;;71.47;25.08;;;;;;;;;;4951985;28;20447;-69
2022/01/10 01:38:55;;;;;;;69.43;22.52;;;;;;;;;;4969071;28;20444;-70
2022/01/10 01:43:53;;;;;;;61.63;25.15;;;;;;;;;;4951852;28;20429;-69
2022/01/10 01:46:18;;;;;;;60.00;24.30;;;;;;;;;;4951472;28;20360;-69
2022/01/10 01:48:45;;;;;;;68.10;23.60;;;;;;;;;;4969160;28;20352;-69
2022/01/10 01:51:10;;;;;;;67.60;24.13;;;;;;;;;;4951176;28;20316;-69
2022/01/10 01:53:37;;;;;;;64.85;22.38;;;;;;;;;;4951334;28;20030;-69
2022/01/10 01:56:07;;;;;;;79.20;23.58;;;;;;;;;;4934799;28;20382;-69
2022/01/10 01:58:33;;;;;;;57.13;23.60;;;;;;;;;;4951548;28;20095;-69
2022/01/10 02:00:59;;;;;;;75.07;25.25;;;;;;;;;;4951039;28;20195;-69
2022/01/10 02:03:24;;;;;;;78.60;23.67;;;;;;;;;;4951898;28;20452;-68
2022/01/10 02:05:50;;;;;;;81.05;24.25;;;;;;;;;;4968845;28;20124;-69
2022/01/10 02:08:15;;;;;;;53.92;21.27;;;;;;;;;;4951726;28;20511;-69
2022/01/10 02:10:41;;;;;;;67.93;22.27;;;;;;;;;;4950874;28;20455;-69
2022/01/10 02:13:06;;;;;;;61.20;22.40;;;;;;;;;;4968990;28;20022;-69
2022/01/10 02:15:49;;;;;;;64.78;22.75;;;;;;;;;;4970018;28;20420;-69
2022/01/10 02:18:15;;;;;;;63.47;21.75;;;;;;;;;;4953605;28;20368;-70
2022/01/10 02:20:41;;;;;;;59.42;21.20;;;;;;;;;;4970359;28;20476;-69
2022/01/10 02:23:06;;;;;;;59.30;21.45;;;;;;;;;;4969059;28;20360;-69
2022/01/10 02:25:32;;;;;;;60.97;22.00;;;;;;;;;;4968781;28;20391;-69
2022/01/10 02:27:57;;;;;;;68.45;21.15;;;;;;;;;;4950931;28;20518;-69
2022/01/10 02:30:23;;;;;;;53.28;20.73;;;;;;;;;;4968924;28;20636;-69
2022/01/10 02:32:48;;;;;;;58.03;19.42;;;;;;;;;;4951795;28;20687;-69
2022/01/10 02:35:54;;;;;;;60.38;20.70;;;;;;;;;;4950990;28;20436;-68
2022/01/10 02:38:19;;;;;;;58.03;19.30;;;;;;;;;;4941559;28;20499;-70
2022/01/10 02:40:46;;;;;;;54.40;20.45;;;;;;;;;;4968392;28;20508;-69
2022/01/10 02:43:11;;;;;;;54.67;22.05;;;;;;;;;;4969051;28;20034;-68
2022/01/10 02:45:36;;;;;;;59.88;20.00;;;;;;;;;;4968390;28;20510;-69
2022/01/10 02:48:02;;;;;;;55.67;21.35;;;;;;;;;;4968552;28;20034;-69
2022/01/10 02:50:27;;;;;;;55.20;19.63;;;;;;;;;;4951112;28;20504;-69
2022/01/10 02:52:52;;;;;;;61.90;21.80;;;;;;;;;;4950798;28;20318;-68
2022/01/10 02:55:18;;;;;;;52.50;20.13;;;;;;;;;;4950502;28;20538;-69
2022/01/10 02:57:44;;;;;;;55.42;20.88;;;;;;;;;;4970968;28;20351;-68
2022/01/10 03:00:17;;;;;;;58.03;19.55;;;;;;;;;;4953863;28;20508;-68
2022/01/10 03:02:44;;;;;;;53.83;17.85;;;;;;;;;;4973093;28;20448;-68
2022/01/10 03:05:10;;;;;;;55.67;18.52;;;;;;;;;;4954307;28;20380;-69
2022/01/10 03:07:35;;;;;;;51.03;18.98;;;;;;;;;;4972090;28;20376;-69
2022/01/10 03:10:01;;;;;;;57.10;18.40;;;;;;;;;;4972401;28;20345;-69
2022/01/10 03:12:30;;;;;;;60.15;19.42;;;;;;;;;;4953979;28;20510;-69
2022/01/10 03:14:56;;;;;;;64.93;23.10;;;;;;;;;;4971743;28;20505;-69
2022/01/10 03:17:21;;;;;;;45.22;18.38;;;;;;;;;;4954016;28;20412;-70
2022/01/10 03:19:46;;;;;;;48.55;17.33;;;;;;;;;;4971764;28;20152;-68
2022/01/10 03:22:12;;;;;;;52.60;18.95;;;;;;;;;;4971308;28;20464;-69
2022/01/10 03:24:37;;;;;;;52.65;18.02;;;;;;;;;;4972302;28;20337;-69
2022/01/10 03:27:03;;;;;;;47.28;17.85;;;;;;;;;;4971349;28;20446;-69
2022/01/10 03:29:28;;;;;;;52.53;17.77;;;;;;;;;;4971889;28;20508;-70
2022/01/10 03:31:54;;;;;;;52.95;18.60;;;;;;;;;;4970814;28;20349;-68
2022/01/10 03:34:19;;;;;;;54.67;19.40;;;;;;;;;;4972630;28;20344;-69
2022/01/10 03:36:45;;;;;;;49.80;18.23;;;;;;;;;;4971147;28;20464;-70
2022/01/10 03:39:12;;;;;;;47.30;17.17;;;;;;;;;;4953402;28;20414;-69
2022/01/10 03:41:37;;;;;;;48.13;18.15;;;;;;;;;;4971675;28;20050;-69
2022/01/10 03:44:03;;;;;;;46.00;17.77;;;;;;;;;;4953567;28;20433;-68
2022/01/10 03:46:32;;;;;;;50.92;17.63;;;;;;;;;;4971460;28;20388;-69
2022/01/10 03:48:57;;;;;;;43.23;19.33;;;;;;;;;;4971289;28;20099;-68
2022/01/10 03:51:23;;;;;;;53.85;18.10;;;;;;;;;;4970969;28;20428;-69
2022/01/10 03:53:48;;;;;;;47.75;17.80;;;;;;;;;;4970720;28;20409;-69
2022/01/10 03:56:13;;;;;;;46.83;17.85;;;;;;;;;;4970757;28;20354;-68
2022/01/10 03:58:38;;;;;;;54.30;17.23;;;;;;;;;;4970918;28;20425;-70
2022/01/10 04:01:05;;;;;;;38.47;17.55;;;;;;;;;;4970820;28;20048;-69
2022/01/10 04:03:31;;;;;;;46.78;16.85;;;;;;;;;;4953597;28;20332;-70
2022/01/10 04:05:58;;;;;;;40.00;16.25;;;;;;;;;;4952912;28;20466;-69
2022/01/10 04:08:24;;;;;;;42.50;17.00;;;;;;;;;;4970415;28;20349;-69
2022/01/10 04:10:51;;;;;;;56.67;18.92;;;;;;;;;;4970956;28;20389;-69
2022/01/10 04:13:16;;;;;;;44.08;17.38;;;;;;;;;;4953249;28;20404;-69
2022/01/10 04:15:42;;;;;;;45.85;17.20;;;;;;;;;;4970598;28;20447;-69
2022/01/10 04:18:07;;;;;;;47.95;17.55;;;;;;;;;;4952691;28;20322;-68
2022/01/10 04:20:33;;;;;;;44.28;16.85;;;;;;;;;;4952853;28;20348;-69
2022/01/10 04:22:58;;;;;;;41.65;15.82;;;;;;;;;;4953054;28;20047;-69
2022/01/10 04:25:23;;;;;;;45.90;16.65;;;;;;;;;;4952586;28;20359;-68
2022/01/10 04:27:49;;;;;;;48.20;17.40;;;;;;;;;;4970307;28;20428;-68
2022/01/10 04:30:14;;;;;;;39.20;14.82;;;;;;;;;;4969948;28;20412;-69
2022/01/10 04:32:42;;;;;;;41.60;15.93;;;;;;;;;;4970306;28;20534;-68
2022/01/10 04:35:08;;;;;;;46.97;17.90;;;;;;;;;;4970637;28;20372;-68
2022/01/10 04:37:33;;;;;;;45.25;15.75;;;;;;;;;;4952374;28;20391;-69
2022/01/10 04:39:58;;;;;;;40.25;15.80;;;;;;;;;;4970133;28;20073;-69
2022/01/10 04:42:24;;;;;;;46.40;17.13;;;;;;;;;;4971199;28;20342;-68
2022/01/10 04:44:49;;;;;;;42.13;15.40;;;;;;;;;;4970033;28;20317;-68
2022/01/10 04:47:15;;;;;;;43.55;17.48;;;;;;;;;;4970339;28;20454;-68
2022/01/10 04:50:51;;;;;;;44.03;16.90;;;;;;;;;;4952211;28;20351;-69
2022/01/10 04:52:30;;;;;;;38.15;15.95;;;;;;;;;;4938289;28;20099;-68
2022/01/10 04:54:56;;;;;;;42.67;16.08;;;;;;;;;;4952148;28;20544;-68
2022/01/10 04:57:22;;;;;;;40.00;15.80;;;;;;;;;;4952024;28;20344;-70
2022/01/10 04:59:48;;;;;;;51.05;17.52;;;;;;;;;;4968238;28;20444;-69
2022/01/10 05:02:13;;;;;;;38.20;16.15;;;;;;;;;;4969552;28;20425;-68
2022/01/10 05:04:39;;;;;;;41.53;17.58;;;;;;;;;;4952201;28;20400;-68
2022/01/10 05:07:04;;;;;;;49.80;18.98;;;;;;;;;;4952196;28;20421;-68
2022/01/10 05:09:30;;;;;;;40.13;15.93;;;;;;;;;;4969316;28;20392;-68
2022/01/10 05:11:55;;;;;;;43.00;17.48;;;;;;;;;;4951467;28;20385;-69
2022/01/10 05:14:21;;;;;;;36.05;14.85;;;;;;;;;;4969742;28;20341;-69
2022/01/10 05:16:47;;;;;;;30.10;13.32;;;;;;;;;;4968996;28;20349;-68
2022/01/10 05:19:12;;;;;;;48.95;16.42;;;;;;;;;;4968899;28;20399;-68
2022/01/10 05:21:37;;;;;;;46.13;16.00;;;;;;;;;;4952309;28;20397;-70
2022/01/10 05:24:03;;;;;;;41.78;15.15;;;;;;;;;;4952008;28;20030;-68
2022/01/10 05:26:28;;;;;;;40.15;15.82;;;;;;;;;;4969792;28;20424;-68
2022/01/10 05:28:55;;;;;;;36.00;14.25;;;;;;;;;;4896867;28;20127;-69
2022/01/10 05:31:21;;;;;;;48.80;15.50;;;;;;;;;;4965816;28;20444;-68
2022/01/10 05:33:46;;;;;;;43.78;16.27;;;;;;;;;;4969345;28;20376;-69
2022/01/10 05:36:12;;;;;;;45.30;17.25;;;;;;;;;;4969133;28;20494;-68
2022/01/10 05:38:38;;;;;;;39.63;15.82;;;;;;;;;;4951246;28;20483;-68
2022/01/10 05:41:03;;;;;;;39.13;15.60;;;;;;;;;;4951637;28;20406;-68
2022/01/10 05:43:29;;;;;;;49.70;18.92;;;;;;;;;;4951207;28;20381;-69
2022/01/10 05:45:54;;;;;;;44.08;17.98;;;;;;;;;;4969162;28;20088;-68
2022/01/10 05:48:26;;;;;;;48.45;17.98;;;;;;;;;;4951477;28;20448;-69
2022/01/10 05:50:52;;;;;;;49.22;18.52;;;;;;;;;;4952684;28;20421;-69
2022/01/10 05:53:18;;;;;;;48.83;19.08;;;;;;;;;;4951316;28;20030;-68
2022/01/10 05:55:44;;;;;;;50.45;20.17;;;;;;;;;;4969428;28;20052;-70
2022/01/10 05:58:09;;;;;;;43.60;16.88;;;;;;;;;;4968799;28;20079;-69
2022/01/10 06:00:35;;;;;;;44.50;19.50;;;;;;;;;;4968343;28;20357;-68
2022/01/10 06:03:01;;;;;;;37.20;17.70;;;;;;;;;;4968669;28;20448;-68
2022/01/10 06:05:30;;;;;;;50.50;18.73;;;;;;;;;;4969831;28;20120;-68
2022/01/10 06:07:58;;;;;;;44.55;18.83;;;;;;;;;;4951747;28;20404;-68
2022/01/10 06:10:24;;;;;;;44.63;17.85;;;;;;;;;;4951096;28;20437;-68
2022/01/10 06:12:49;;;;;;;45.25;19.30;;;;;;;;;;4951383;28;20441;-68
2022/01/10 06:15:14;;;;;;;39.63;17.38;;;;;;;;;;4951172;28;20479;-68
2022/01/10 06:17:40;;;;;;;40.88;17.70;;;;;;;;;;4969827;28;20416;-68
2022/01/10 06:20:05;;;;;;;41.13;17.13;;;;;;;;;;4968766;28;20376;-69
2022/01/10 06:22:32;;;;;;;43.05;17.00;;;;;;;;;;4950877;28;20403;-68
2022/01/10 06:24:58;;;;;;;37.95;17.10;;;;;;;;;;4968774;28;20445;-68
2022/01/10 06:27:23;;;;;;;49.00;19.20;;;;;;;;;;4951294;28;20344;-68
2022/01/10 06:29:48;;;;;;;36.42;15.73;;;;;;;;;;4950951;28;20476;-69
2022/01/10 06:32:14;;;;;;;39.97;16.42;;;;;;;;;;4971157;28;20057;-68
2022/01/10 06:34:39;;;;;;;39.28;16.98;;;;;;;;;;4972251;28;20026;-68
2022/01/10 06:37:04;;;;;;;40.35;16.83;;;;;;;;;;4972342;28;20349;-69
2022/01/10 06:39:30;;;;;;;44.70;18.00;;;;;;;;;;4972350;28;20317;-68
2022/01/10 06:41:55;;;;;;;43.78;18.20;;;;;;;;;;4972390;28;20348;-68
2022/01/10 06:44:21;;;;;;;46.22;17.90;;;;;;;;;;4970714;28;20375;-68
2022/01/10 06:46:46;;;;;;;43.28;17.30;;;;;;;;;;4973586;28;20029;-69
2022/01/10 06:49:11;;;;;;;42.10;15.85;;;;;;;;;;4971794;28;20492;-69
2022/01/10 06:51:37;;;;;;;43.50;17.77;;;;;;;;;;4954718;28;20420;-68
2022/01/10 06:54:02;;;;;;;49.28;20.25;;;;;;;;;;4954225;28;20385;-69
2022/01/10 06:56:27;;;;;;;45.00;17.33;;;;;;;;;;4972968;28;20429;-69
2022/01/10 06:58:53;;;;;;;47.70;17.83;;;;;;;;;;4953718;28;20771;-68
2022/01/10 07:01:20;;;;;;;41.30;17.23;;;;;;;;;;4954269;28;20414;-69
2022/01/10 07:03:45;;;;;;;38.65;16.42;;;;;;;;;;4971623;28;20310;-68
2022/01/10 07:06:11;;;;;;;37.67;16.45;;;;;;;;;;4972446;28;20397;-68
2022/01/10 07:08:36;;;;;;;37.50;16.17;;;;;;;;;;4971723;28;20324;-68
2022/01/10 07:11:02;;;;;;;46.65;16.50;;;;;;;;;;4953854;28;20345;-69
2022/01/10 07:13:27;;;;;;;42.97;17.92;;;;;;;;;;4954605;28;20048;-68
2022/01/10 07:15:53;;;;;;;38.45;16.58;;;;;;;;;;4971378;28;20094;-71
2022/01/10 07:18:18;;;;;;;43.83;19.20;;;;;;;;;;4971771;28;20658;-68
2022/01/10 07:20:43;;;;;;;39.38;17.55;;;;;;;;;;4973125;28;20393;-69
2022/01/10 07:23:08;;;;;;;37.47;15.85;;;;;;;;;;4971719;28;20407;-68
2022/01/10 07:25:35;;;;;;;39.25;16.45;;;;;;;;;;4971097;28;20514;-69
2022/01/10 07:28:00;;;;;;;38.63;16.55;;;;;;;;;;4973115;28;20368;-69
2022/01/10 07:30:25;;;;;;;36.42;15.68;;;;;;;;;;4972422;28;20396;-70
2022/01/10 07:32:51;;;;;;;34.20;15.55;;;;;;;;;;4971387;28;20518;-68
2022/01/10 07:35:17;;;;;;;34.70;15.95;;;;;;;;;;4953527;28;20389;-69
2022/01/10 07:37:42;;;;;;;39.55;16.40;;;;;;;;;;4971434;28;20444;-71
2022/01/10 07:40:08;;;;;;;35.83;15.10;;;;;;;;;;4970831;28;20111;-69
2022/01/10 07:42:33;;;;;;;40.15;16.95;;;;;;;;;;4972493;28;20359;-68
2022/01/10 07:44:58;;;;;;;42.03;16.83;;;;;;;;;;4970951;28;20548;-69
2022/01/10 07:47:24;;;;;;;39.53;16.08;;;;;;;;;;4971512;28;20531;-68
2022/01/10 07:49:50;;;;;;;36.92;16.20;;;;;;;;;;4971160;28;20405;-69
2022/01/10 07:52:16;;;;;;;35.60;15.05;;;;;;;;;;4954052;28;20318;-69
2022/01/10 07:54:41;;;;;;;34.58;16.15;;;;;;;;;;4970753;28;20302;-71
2022/01/10 07:57:07;;;;;;;38.38;16.55;;;;;;;;;;4969401;28;20385;-68
2022/01/10 07:59:32;;;;;;;37.88;15.38;;;;;;;;;;4970604;28;20337;-69
2022/01/10 08:01:57;;;;;;;33.33;15.75;;;;;;;;;;4953173;28;20337;-70
2022/01/10 08:04:23;;;;;;;31.33;14.65;;;;;;;;;;4971395;28;20048;-69
2022/01/10 08:06:48;;;;;;;33.38;16.33;;;;;;;;;;4970527;28;20448;-69
2022/01/10 08:09:13;;;;;;;33.90;14.75;;;;;;;;;;4971209;28;20508;-69
2022/01/10 08:11:39;;;;;;;37.85;16.08;;;;;;;;;;4952873;28;20452;-69
2022/01/10 08:14:05;;;;;;;37.15;15.82;;;;;;;;;;4970662;28;20524;-70
2022/01/10 08:16:30;;;;;;;36.17;15.40;;;;;;;;;;4971574;28;20360;-69
2022/01/10 08:18:56;;;;;;;31.77;14.30;;;;;;;;;;4970934;28;20336;-69
2022/01/10 08:21:22;;;;;;;38.80;16.13;;;;;;;;;;4969024;28;20348;-69
2022/01/10 08:23:48;;;;;;;37.42;14.27;;;;;;;;;;4970094;28;20492;-69
2022/01/10 08:26:13;;;;;;;33.10;15.65;;;;;;;;;;4952542;28;20459;-71
2022/01/10 08:28:39;;;;;;;38.53;15.80;;;;;;;;;;4970027;28;20613;-69
2022/01/10 08:31:05;;;;;;;29.95;14.50;;;;;;;;;;4971202;28;20022;-69
2022/01/10 08:33:30;;;;;;;35.35;15.60;;;;;;;;;;4969998;28;20320;-69
2022/01/10 08:35:56;;;;;;;30.92;14.05;;;;;;;;;;4970788;28;20102;-69
2022/01/10 08:38:21;;;;;;;35.90;14.35;;;;;;;;;;4969677;28;20305;-69
2022/01/10 08:40:47;;;;;;;34.10;14.02;;;;;;;;;;4968924;28;20025;-70
2022/01/10 08:43:12;;;;;;;41.53;16.38;;;;;;;;;;4952148;28;20423;-69
2022/01/10 08:45:38;;;;;;;32.10;14.25;;;;;;;;;;4970404;28;20381;-69
2022/01/10 08:48:07;;;;;;;36.75;15.48;;;;;;;;;;4935598;28;20394;-69
2022/01/10 08:50:33;;;;;;;33.63;13.82;;;;;;;;;;4971132;28;20444;-69
2022/01/10 08:53:01;;;;;;;36.33;14.85;;;;;;;;;;4952390;28;20405;-71
2022/01/10 08:55:26;;;;;;;34.83;14.95;;;;;;;;;;4951768;28;20353;-69
2022/01/10 08:57:51;;;;;;;34.88;14.88;;;;;;;;;;4969454;28;20029;-69
2022/01/10 09:00:17;;;;;;;30.33;14.07;;;;;;;;;;4969639;28;20480;-69
2022/01/10 09:02:45;;;;;;;34.20;15.57;;;;;;;;;;4969447;28;20049;-69
2022/01/10 09:05:10;;;;;;;29.25;14.98;;;;;;;;;;4952626;28;20033;-69
2022/01/10 09:07:36;;;;;;;26.30;13.20;;;;;;;;;;4951711;28;20048;-69
2022/01/10 09:10:01;;;;;;;29.70;13.55;;;;;;;;;;4969459;28;20423;-69
2022/01/10 09:12:26;;;;;;;29.48;13.70;;;;;;;;;;4968108;28;20400;-69
2022/01/10 09:14:52;;;;;;;28.10;13.75;;;;;;;;;;4951947;28;20393;-69
2022/01/10 09:17:17;;;;;;;29.08;13.15;;;;;;;;;;4969617;28;20388;-70
2022/01/10 09:19:43;;;;;;;30.55;13.13;;;;;;;;;;4951923;28;20049;-70
2022/01/10 09:22:08;;;;;;;29.92;12.15;;;;;;;;;;4969555;28;20096;-69
2022/01/10 09:24:33;;;;;;;32.20;12.98;;;;;;;;;;4969718;28;20417;-70
2022/01/10 09:26:59;;;;;;;37.55;14.25;;;;;;;;;;4951847;28;20352;-70
2022/01/10 09:29:25;;;;;;;30.60;13.43;;;;;;;;;;4970165;28;20367;-70
2022/01/10 09:31:50;;;;;;;25.45;12.38;;;;;;;;;;4952678;28;20029;-70
2022/01/10 09:34:15;;;;;;;27.45;13.23;;;;;;;;;;4951527;28;20372;-69
2022/01/10 09:36:41;;;;;;;29.67;12.50;;;;;;;;;;4970597;28;20352;-69
2022/01/10 09:39:06;;;;;;;28.02;13.25;;;;;;;;;;4951034;28;20429;-70
2022/01/10 09:41:32;;;;;;;22.92;12.07;;;;;;;;;;4969644;28;20029;-70
2022/01/10 09:44:01;;;;;;;30.40;14.05;;;;;;;;;;4970460;28;20029;-69
2022/01/10 09:46:27;;;;;;;33.58;14.05;;;;;;;;;;4952026;28;20060;-70
2022/01/10 09:48:53;;;;;;;37.70;14.85;;;;;;;;;;4951219;28;20436;-69
2022/01/10 09:51:20;;;;;;;35.75;15.07;;;;;;;;;;4952229;28;20391;-70
2022/01/10 09:53:45;;;;;;;42.40;17.17;;;;;;;;;;4969600;28;20475;-70
2022/01/10 09:56:10;;;;;;;45.95;17.55;;;;;;;;;;4969911;28;20515;-70
2022/01/10 09:58:36;;;;;;;43.72;17.27;;;;;;;;;;4969526;28;20379;-69
2022/01/10 10:01:02;;;;;;;47.63;17.67;;;;;;;;;;4968796;28;20041;-69
2022/01/10 10:03:28;;;;;;;52.15;19.20;;;;;;;;;;4951584;28;20436;-70
2022/01/10 10:05:54;;;;;;;44.65;17.55;;;;;;;;;;4952958;28;20409;-70
2022/01/10 10:08:21;;;;;;;40.08;16.92;;;;;;;;;;4974455;28;20405;-69
2022/01/10 10:10:47;;;;;;;41.10;17.02;;;;;;;;;;4955046;28;20346;-70
2022/01/10 10:13:14;;;;;;;36.13;15.98;;;;;;;;;;4955418;28;20029;-70
2022/01/10 10:15:40;;;;;;;43.03;17.10;;;;;;;;;;4955396;28;20480;-70
2022/01/10 10:18:08;;;;;;;38.33;16.42;;;;;;;;;;4955285;28;20484;-70
2022/01/10 10:20:33;;;;;;;41.28;17.10;;;;;;;;;;4972681;28;20348;-70
2022/01/10 10:22:59;;;;;;;38.10;14.10;;;;;;;;;;4973264;28;20341;-70
2022/01/10 10:25:24;;;;;;;37.33;15.13;;;;;;;;;;4973116;28;20408;-70
2022/01/10 10:27:49;;;;;;;36.90;13.85;;;;;;;;;;4972568;28;20444;-69
2022/01/10 10:30:26;;;;;;;35.00;15.52;;;;;;;;;;4973873;28;20436;-70
2022/01/10 10:32:52;;;;;;;34.50;14.23;;;;;;;;;;4972863;28;20415;-70
2022/01/10 10:35:17;;;;;;;35.47;14.07;;;;;;;;;;4972682;28;20360;-69
2022/01/10 10:37:44;;;;;;;36.88;14.55;;;;;;;;;;4973293;28;20436;-70
2022/01/10 10:40:14;;;;;;;37.47;14.98;;;;;;;;;;4954391;28;20061;-70
2022/01/10 10:42:41;;;;;;;44.92;15.15;;;;;;;;;;4954591;28;20528;-70
2022/01/10 10:45:09;;;;;;;30.92;13.88;;;;;;;;;;4972075;28;20448;-70
2022/01/10 10:47:40;;;;;;;31.05;13.88;;;;;;;;;;4972314;28;20400;-70
2022/01/10 10:50:06;;;;;;;33.22;14.02;;;;;;;;;;4954551;28;20380;-70
2022/01/10 10:52:34;;;;;;;31.75;13.75;;;;;;;;;;4954750;28;20452;-70
2022/01/10 10:55:12;;;;;;;30.08;12.88;;;;;;;;;;4955130;28;20620;-70
2022/01/10 10:57:37;;;;;;;25.67;11.65;;;;;;;;;;4954287;28;20115;-70
2022/01/10 11:00:07;;;;;;;31.17;12.82;;;;;;;;;;4954066;28;20049;-69
2022/01/10 11:02:33;;;;;;;27.65;11.90;;;;;;;;;;4954420;28;20168;-70
2022/01/10 11:05:02;;;;;;;27.95;12.77;;;;;;;;;;4954840;28;20441;-69
2022/01/10 11:07:31;;;;;;;31.88;12.80;;;;;;;;;;4971137;28;20448;-71
2022/01/10 11:09:56;;;;;;;28.95;12.50;;;;;;;;;;4954510;28;20127;-70
2022/01/10 11:12:24;;;;;;;28.95;13.43;;;;;;;;;;4953838;28;20029;-70
2022/01/10 11:14:52;;;;;;;28.48;12.38;;;;;;;;;;4954861;28;20401;-70
2022/01/10 11:17:20;;;;;;;35.67;14.38;;;;;;;;;;4972089;28;20300;-70
2022/01/10 11:20:12;;;;;;;24.88;11.48;;;;;;;;;;4972071;28;20455;-70
2022/01/10 11:22:42;;;;;;;33.67;12.60;;;;;;;;;;4971384;28;20525;-70
2022/01/10 11:25:20;;;;;;;23.80;11.35;;;;;;;;;;4954615;28;20328;-70
2022/01/10 11:27:46;;;;;;;30.58;11.52;;;;;;;;;;4973200;28;20314;-70
2022/01/10 11:30:38;;;;;;;29.40;11.55;;;;;;;;;;4971326;28;20352;-70
2022/01/10 11:33:09;;;;;;;28.67;12.57;;;;;;;;;;4953940;28;20441;-70
2022/01/10 11:35:37;;;;;;;31.52;12.15;;;;;;;;;;4937413;28;20502;-70
2022/01/10 11:38:46;;;;;;;26.83;11.30;;;;;;;;;;4954031;28;20405;-70
2022/01/10 11:41:16;;;;;;;;;;;;;;;;;;4971715;28;20460;-70
2022/01/10 11:43:57;;;;;;;24.30;11.80;;;;;;;;;;4953411;28;20331;-70
2022/01/10 11:46:23;;;;;;;29.13;11.55;;;;;;;;;;4971297;28;20351;-70
2022/01/10 11:48:55;;;;;;;27.10;10.38;;;;;;;;;;4971409;28;20515;-70
2022/01/10 11:51:35;;;;;;;25.02;11.45;;;;;;;;;;4971132;28;20464;-70
2022/01/10 11:54:07;;;;;;;20.63;9.80;;;;;;;;;;4971160;28;20391;-70
2022/01/10 11:56:34;;;;;;;24.90;10.68;;;;;;;;;;4969468;28;20429;-70
2022/01/10 11:59:06;;;;;;;23.35;10.38;;;;;;;;;;4952357;28;20068;-70
2022/01/10 12:01:33;;;;;;;25.23;11.25;;;;;;;;;;4970785;28;20392;-70
2022/01/10 12:03:59;;;;;;;26.50;11.27;;;;;;;;;;4970875;28;20432;-70
2022/01/10 12:06:25;;;;;;;25.10;10.77;;;;;;;;;;4971333;28;20318;-70
2022/01/10 12:08:53;;;;;;;22.50;11.20;;;;;;;;;;4970646;28;20364;-70
2022/01/10 12:11:23;;;;;;;24.02;10.95;;;;;;;;;;4952698;28;20341;-70
2022/01/10 12:13:49;;;;;;;23.10;9.20;;;;;;;;;;4970455;28;20415;-70
2022/01/10 12:16:14;;;;;;;22.75;9.40;;;;;;;;;;4969913;28;20330;-70
2022/01/10 12:18:40;;;;;;;19.48;9.80;;;;;;;;;;4969389;28;20352;-70
2022/01/10 12:21:05;;;;;;;19.52;10.68;;;;;;;;;;4972070;28;20383;-70
2022/01/10 12:23:31;;;;;;;24.90;10.07;;;;;;;;;;4970709;28;20432;-70
2022/01/10 12:25:56;;;;;;;24.40;10.43;;;;;;;;;;4970925;28;20484;-70
2022/01/10 12:28:21;;;;;;;21.23;9.20;;;;;;;;;;4968695;28;20419;-70
2022/01/10 12:30:47;;;;;;;23.27;9.73;;;;;;;;;;4969963;28;20029;-70
2022/01/10 12:33:12;;;;;;;20.50;9.85;;;;;;;;;;4952840;28;20348;-70
2022/01/10 12:35:38;;;;;;;23.23;9.50;;;;;;;;;;4970154;28;20112;-70
2022/01/10 12:38:03;;;;;;;20.58;8.88;;;;;;;;;;4970038;28;20421;-70
2022/01/10 12:40:32;;;;;;;19.33;8.65;;;;;;;;;;4970388;28;20030;-70
2022/01/10 12:42:58;;;;;;;19.20;9.02;;;;;;;;;;4971215;28;20460;-70
2022/01/10 12:45:23;;;;;;;18.17;8.75;;;;;;;;;;4970246;28;20463;-70
2022/01/10 12:47:49;;;;;;;18.77;8.70;;;;;;;;;;4968361;28;20420;-70
2022/01/10 12:50:14;;;;;;;23.30;9.60;;;;;;;;;;4968620;28;20065;-70
2022/01/10 12:52:41;;;;;;;18.70;8.32;;;;;;;;;;4952503;28;20034;-70
2022/01/10 12:55:07;;;;;;;16.65;8.23;;;;;;;;;;4952207;28;20390;-70
2022/01/10 12:57:32;;;;;;;17.55;8.95;;;;;;;;;;4970494;28;20403;-70
2022/01/10 12:59:59;;;;;;;19.85;9.63;;;;;;;;;;4969790;28;20456;-70
2022/01/10 13:02:25;;;;;;;22.40;10.02;;;;;;;;;;4969435;28;20030;-70
2022/01/10 13:04:50;;;;;;;17.10;9.30;;;;;;;;;;4969897;28;20095;-70
2022/01/10 13:07:17;;;;;;;20.50;8.95;;;;;;;;;;4968201;28;20352;-71
2022/01/10 13:09:44;;;;;;;19.63;9.00;;;;;;;;;;4970010;28;20412;-70
2022/01/10 13:12:23;;;;;;;24.88;9.38;;;;;;;;;;4969895;28;20466;-71
2022/01/10 13:14:49;;;;;;;18.77;8.55;;;;;;;;;;4953780;28;20337;-70
2022/01/10 13:17:19;;;;;;;19.52;8.38;;;;;;;;;;4952037;28;20049;-70
2022/01/10 13:19:45;;;;;;;20.83;9.45;;;;;;;;;;4969659;28;20037;-70
2022/01/10 13:22:13;;;;;;;18.30;7.53;;;;;;;;;;4951540;28;20458;-70
2022/01/10 13:24:47;;;;;;;17.67;9.32;;;;;;;;;;4952280;28;20092;-70
2022/01/10 13:27:17;;;;;;;15.00;8.95;;;;;;;;;;4969516;28;20456;-70
2022/01/10 13:29:45;;;;;;;18.77;9.25;;;;;;;;;;4969276;28;20467;-70
2022/01/10 13:32:32;;;;;;;16.65;8.15;;;;;;;;;;4951696;28;20448;-70
2022/01/10 13:35:00;;;;;;;24.77;10.45;;;;;;;;;;4951320;28;20429;-71
2022/01/10 13:37:28;;;;;;;21.77;9.70;;;;;;;;;;4969835;28;20326;-70
2022/01/10 13:40:10;;;;;;;22.20;9.35;;;;;;;;;;4968629;28;20034;-71
2022/01/10 13:42:50;;;;;;;17.60;8.10;;;;;;;;;;4968073;28;20375;-71
2022/01/10 13:45:18;;;;;;;17.83;8.27;;;;;;;;;;4955053;28;20443;-70
2022/01/10 13:47:51;;;;;;;21.42;9.70;;;;;;;;;;4989357;28;20337;-72
2022/01/10 13:50:18;;;;;;;34.22;13.27;;;;;;;;;;4989719;28;20431;-72
2022/01/10 13:53:02;;;;;;;37.25;16.13;;;;;;;;;;4970323;28;20457;-70
2022/01/10 13:55:27;;;;;;;76.60;27.58;;;;;;;;;;4987661;28;20444;-70
2022/01/10 13:57:52;;;;;;;82.20;28.23;;;;;;;;;;4986945;28;20386;-70
2022/01/10 14:00:18;;;;;;;77.25;25.55;;;;;;;;;;4987037;28;20416;-70
2022/01/10 14:02:44;;;;;;;65.47;23.67;;;;;;;;;;4989284;28;20087;-70
2022/01/10 14:05:26;;;;;;;71.45;23.52;;;;;;;;;;4970192;28;20424;-71
2022/01/10 14:07:56;;;;;;;65.25;24.83;;;;;;;;;;4987884;28;20241;-71
2022/01/10 14:10:23;;;;;;;68.25;23.90;;;;;;;;;;4970438;28;20040;-70
2022/01/10 14:12:52;;;;;;;61.40;22.25;;;;;;;;;;4970239;28;20029;-70
2022/01/10 14:15:44;;;;;;;76.50;23.60;;;;;;;;;;4971324;28;20048;-70
2022/01/10 14:18:09;;;;;;;62.90;21.60;;;;;;;;;;4987838;28;20371;-70
2022/01/10 14:20:34;;;;;;;62.22;21.63;;;;;;;;;;4988397;28;20413;-70
2022/01/10 14:23:00;;;;;;;77.72;22.55;;;;;;;;;;4970391;28;20033;-70
2022/01/10 14:25:26;;;;;;;78.18;23.13;;;;;;;;;;4990202;28;20337;-70
2022/01/10 14:27:51;;;;;;;64.32;20.77;;;;;;;;;;4988191;28;20426;-70
2022/01/10 14:30:18;;;;;;;57.17;21.70;;;;;;;;;;4988834;28;20382;-71